createdAt,value
2019-04-05T00:02:12.148Z,8.40
2019-04-05T00:04:45.539Z,6.47
2019-04-05T00:07:20.162Z,7.67
2019-04-05T00:09:54.303Z,7.50
2019-04-05T00:12:28.730Z,7.53
2019-04-05T00:15:14.289Z,8.33
2019-04-05T00:17:38.352Z,8.07
2019-04-05T00:20:12.489Z,7.67
2019-04-05T00:22:45.891Z,7.43
2019-04-05T00:25:19.254Z,7.00
2019-04-05T00:27:54.521Z,6.20
2019-04-05T00:30:29.611Z,8.67
2019-04-05T00:33:02.673Z,8.10
2019-04-05T00:35:36.234Z,6.73
2019-04-05T00:38:11.036Z,6.70
2019-04-05T00:40:46.030Z,9.00
2019-04-05T00:43:22.326Z,10.40
2019-04-05T00:45:58.167Z,9.80
2019-04-05T00:48:33.342Z,10.90
2019-04-05T00:51:07.938Z,11.30
2019-04-05T00:53:42.734Z,16.50
2019-04-05T00:56:17.816Z,12.73
2019-04-05T00:58:54.501Z,11.03
2019-04-05T01:01:28.773Z,13.20
2019-04-05T01:04:04.352Z,11.17
2019-04-05T01:06:37.485Z,12.30
2019-04-05T01:09:12.210Z,11.50
2019-04-05T01:11:45.640Z,10.13
2019-04-05T01:14:20.194Z,9.87
2019-04-05T01:16:53.456Z,11.23
2019-04-05T01:19:29.389Z,10.97
2019-04-05T01:22:04.044Z,11.80
2019-04-05T01:24:39.107Z,10.53
2019-04-05T01:27:14.418Z,9.90
2019-04-05T01:29:47.478Z,9.00
2019-04-05T01:32:22.199Z,8.93
2019-04-05T01:34:56.409Z,9.03
2019-04-05T01:37:31.400Z,9.23
2019-04-05T01:40:04.830Z,9.93
2019-04-05T01:42:39.636Z,9.57
2019-04-05T01:45:14.334Z,11.40
2019-04-05T01:47:47.306Z,9.23
2019-04-05T01:50:23.833Z,9.87
2019-04-05T01:52:57.033Z,8.23
2019-04-05T01:55:29.583Z,10.00
2019-04-05T01:58:02.984Z,10.23
2019-04-05T02:00:37.786Z,10.23
2019-04-05T02:03:11.279Z,8.60
2019-04-05T02:05:46.117Z,7.87
2019-04-05T02:08:21.084Z,7.70
2019-04-05T02:10:55.895Z,6.53
2019-04-05T02:13:29.294Z,6.47
2019-04-05T02:16:06.562Z,7.20
2019-04-05T02:18:40.620Z,11.90
2019-04-05T02:21:17.260Z,6.70
2019-04-05T02:23:51.486Z,7.17
2019-04-05T02:26:24.443Z,6.87
2019-04-05T02:28:59.255Z,6.80
2019-04-05T02:31:34.187Z,6.07
2019-04-05T02:34:07.846Z,6.90
2019-04-05T02:36:40.791Z,6.73
2019-04-05T02:39:15.742Z,6.13
2019-04-05T02:41:51.808Z,7.67
2019-04-05T02:44:27.920Z,6.60
2019-04-05T02:47:00.844Z,7.40
2019-04-05T02:49:35.697Z,6.73
2019-04-05T02:52:11.299Z,7.13
2019-04-05T02:54:47.608Z,6.90
2019-04-05T02:57:22.659Z,6.40
2019-04-05T02:59:56.937Z,7.47
2019-04-05T03:02:32.643Z,7.10
2019-04-05T03:05:05.707Z,7.73
2019-04-05T03:07:39.179Z,8.17
2019-04-05T03:10:36.599Z,7.73
2019-04-05T03:13:09.509Z,6.97
2019-04-05T03:15:44.855Z,7.63
2019-04-05T03:18:19.225Z,8.17
2019-04-05T03:20:53.979Z,8.50
2019-04-05T03:23:29.980Z,7.57
2019-04-05T03:26:07.049Z,7.63
2019-04-05T03:28:45.206Z,7.90
2019-04-05T03:31:24.504Z,8.27
2019-04-05T03:33:55.499Z,7.70
2019-04-05T03:36:29.930Z,8.37
2019-04-05T03:39:08.029Z,8.13
2019-04-05T03:41:41.159Z,10.27
2019-04-05T03:44:16.623Z,9.13
2019-04-05T03:46:56.739Z,8.30
2019-04-05T03:49:30.321Z,7.77
2019-04-05T03:52:05.981Z,8.47
2019-04-05T03:54:41.515Z,9.00
2019-04-05T03:57:16.057Z,9.93
2019-04-05T03:59:50.205Z,9.47
2019-04-05T04:02:23.974Z,8.93
2019-04-05T04:04:59.583Z,9.67
2019-04-05T04:07:34.993Z,10.67
2019-04-05T04:10:11.812Z,9.50
2019-04-05T04:12:46.798Z,13.03
2019-04-05T04:15:22.585Z,10.70
2019-04-05T04:17:56.961Z,9.70
2019-04-05T04:20:51.521Z,11.70
2019-04-05T04:23:29.356Z,9.93
2019-04-05T04:26:04.452Z,13.27
2019-04-05T04:28:42.809Z,10.07
2019-04-05T04:31:17.630Z,9.53
2019-04-05T04:33:53.158Z,10.13
2019-04-05T04:36:31.984Z,10.23
2019-04-05T04:39:07.241Z,9.27
2019-04-05T04:41:41.069Z,9.60
2019-04-05T04:44:16.055Z,8.37
2019-04-05T04:46:49.560Z,9.10
2019-04-05T04:49:23.338Z,7.67
2019-04-05T04:51:56.707Z,10.00
2019-04-05T04:54:30.465Z,9.07
2019-04-05T04:57:05.215Z,9.30
2019-04-05T04:59:40.318Z,10.50
2019-04-05T05:02:13.897Z,9.00
2019-04-05T05:04:47.815Z,9.13
2019-04-05T05:07:21.478Z,10.03
2019-04-05T05:09:56.538Z,9.20
2019-04-05T05:12:30.136Z,8.87
2019-04-05T05:15:06.179Z,11.03
2019-04-05T05:17:39.763Z,20.13
2019-04-05T05:20:13.538Z,13.03
2019-04-05T05:22:48.474Z,12.57
2019-04-05T05:25:24.365Z,9.83
2019-04-05T05:28:00.186Z,9.33
2019-04-05T05:30:33.670Z,9.20
2019-04-05T05:33:09.033Z,9.73
2019-04-05T05:35:42.448Z,9.80
2019-04-05T05:38:14.688Z,10.03
2019-04-05T05:40:49.446Z,9.60
2019-04-05T05:43:25.510Z,10.20
2019-04-05T05:45:59.109Z,9.73
2019-04-05T05:48:32.660Z,9.70
2019-04-05T05:51:07.383Z,9.60
2019-04-05T05:53:41.768Z,9.80
2019-04-05T05:56:16.016Z,10.23
2019-04-05T05:58:51.165Z,10.47
2019-04-05T06:01:29.737Z,14.23
2019-04-05T06:04:02.996Z,10.30
2019-04-05T06:06:39.822Z,10.17
2019-04-05T06:09:13.324Z,12.10
2019-04-05T06:11:50.120Z,10.70
2019-04-05T06:14:25.450Z,12.63
2019-04-05T06:17:00.315Z,11.80
2019-04-05T06:19:33.758Z,12.80
2019-04-05T06:22:07.506Z,9.20
2019-04-05T06:24:54.211Z,9.77
2019-04-05T06:27:25.443Z,8.70
2019-04-05T06:30:01.896Z,7.93
2019-04-05T06:32:35.980Z,8.80
2019-04-05T06:35:11.553Z,8.87
2019-04-05T06:37:45.320Z,9.30
2019-04-05T06:40:18.774Z,10.57
2019-04-05T06:42:54.203Z,7.47
2019-04-05T06:45:29.111Z,8.30
2019-04-05T06:48:02.772Z,9.23
2019-04-05T06:50:38.028Z,9.33
2019-04-05T06:53:11.599Z,8.90
2019-04-05T06:55:48.128Z,11.63
2019-04-05T06:58:28.845Z,14.40
2019-04-05T07:01:00.535Z,12.17
2019-04-05T07:03:35.350Z,14.90
2019-04-05T07:06:09.081Z,15.83
2019-04-05T07:08:53.684Z,15.87
2019-04-05T07:11:18.997Z,18.77
2019-04-05T07:13:53.038Z,17.83
2019-04-05T07:16:26.773Z,15.50
2019-04-05T07:19:01.483Z,16.60
2019-04-05T07:21:35.035Z,17.90
2019-04-05T07:24:12.612Z,14.87
2019-04-05T07:26:48.601Z,10.27
2019-04-05T07:29:23.391Z,19.23
2019-04-05T07:31:58.165Z,15.30
2019-04-05T07:34:35.551Z,18.87
2019-04-05T07:37:08.911Z,12.17
2019-04-05T07:39:45.601Z,8.60
2019-04-05T07:42:20.486Z,14.33
2019-04-05T07:44:55.860Z,15.53
2019-04-05T07:47:30.119Z,7.73
2019-04-05T07:50:05.061Z,13.60
2019-04-05T07:52:38.492Z,13.77
2019-04-05T07:55:13.110Z,10.33
2019-04-05T07:57:46.732Z,7.20
2019-04-05T08:00:52.750Z,7.33
2019-04-05T08:03:31.458Z,10.13
2019-04-05T08:06:10.314Z,11.60
2019-04-05T08:08:53.127Z,12.50
2019-04-05T08:11:28.431Z,7.40
2019-04-05T08:14:03.347Z,12.90
2019-04-05T08:16:38.079Z,8.77
2019-04-05T08:19:14.861Z,8.20
2019-04-05T08:21:51.089Z,10.00
2019-04-05T08:24:26.658Z,13.57
2019-04-05T08:27:06.607Z,8.23
2019-04-05T08:29:41.276Z,10.37
2019-04-05T08:32:15.167Z,11.50
2019-04-05T08:34:50.961Z,9.13
2019-04-05T08:37:25.069Z,15.60
2019-04-05T08:39:58.148Z,10.40
2019-04-05T08:42:32.188Z,12.00
2019-04-05T08:45:05.505Z,13.40
2019-04-05T08:47:40.390Z,10.33
2019-04-05T08:50:15.083Z,12.87
2019-04-05T08:52:49.946Z,9.10
2019-04-05T08:55:23.062Z,10.67
2019-04-05T08:57:57.387Z,9.73
2019-04-05T09:00:31.402Z,9.33
2019-04-05T09:03:06.431Z,7.67
2019-04-05T09:05:40.770Z,9.87
2019-04-05T09:08:16.228Z,11.73
2019-04-05T09:10:54.552Z,9.13
2019-04-05T09:13:28.607Z,9.60
2019-04-05T09:16:02.239Z,9.40
2019-04-05T09:18:37.820Z,13.63
2019-04-05T09:21:12.429Z,12.87
2019-04-05T09:23:49.236Z,10.23
2019-04-05T09:26:23.528Z,9.10
2019-04-05T09:28:56.024Z,15.33
2019-04-05T09:31:31.362Z,9.20
2019-04-05T09:34:08.074Z,8.73
2019-04-05T09:36:42.174Z,11.53
2019-04-05T09:39:18.258Z,12.03
2019-04-05T09:41:54.328Z,15.47
2019-04-05T09:44:29.970Z,11.03
2019-04-05T09:47:06.800Z,14.97
2019-04-05T09:49:41.266Z,9.43
2019-04-05T09:52:18.142Z,8.67
2019-04-05T09:54:53.681Z,8.43
2019-04-05T09:57:27.986Z,7.53
2019-04-05T10:00:04.764Z,9.33
2019-04-05T10:02:39.118Z,10.30
2019-04-05T10:05:14.650Z,8.60
2019-04-05T10:07:54.956Z,8.87
2019-04-05T10:10:25.312Z,9.20
2019-04-05T10:13:03.158Z,11.00
2019-04-05T10:15:36.877Z,11.00
2019-04-05T10:18:11.530Z,9.70
2019-04-05T10:20:47.938Z,9.00
2019-04-05T10:23:22.274Z,8.23
2019-04-05T10:25:57.823Z,8.83
2019-04-05T10:28:33.348Z,5.93
2019-04-05T10:31:07.842Z,10.93
2019-04-05T10:33:46.515Z,6.83
2019-04-05T10:36:20.854Z,12.73
2019-04-05T10:38:57.771Z,11.23
2019-04-05T10:41:31.789Z,5.63
2019-04-05T10:44:06.971Z,4.40
2019-04-05T10:46:47.863Z,6.23
2019-04-05T10:49:24.313Z,6.70
2019-04-05T10:51:58.353Z,6.00
2019-04-05T10:54:32.970Z,6.47
2019-04-05T10:57:08.396Z,8.17
2019-04-05T10:59:42.730Z,6.50
2019-04-05T11:02:16.942Z,5.63
2019-04-05T11:04:52.277Z,5.87
2019-04-05T11:07:29.020Z,13.67
2019-04-05T11:10:02.766Z,8.80
2019-04-05T11:12:37.440Z,5.53
2019-04-05T11:15:11.008Z,9.40
2019-04-05T11:17:48.068Z,8.00
2019-04-05T11:20:23.886Z,7.07
2019-04-05T11:22:59.608Z,7.13
2019-04-05T11:25:34.115Z,7.93
2019-04-05T11:28:08.034Z,8.17
2019-04-05T11:30:45.568Z,9.73
2019-04-05T11:33:22.561Z,7.30
2019-04-05T11:35:58.263Z,7.57
2019-04-05T11:38:32.268Z,5.23
2019-04-05T11:41:06.957Z,8.17
2019-04-05T11:43:42.637Z,9.17
2019-04-05T11:46:19.752Z,8.00
2019-04-05T11:48:54.780Z,11.23
2019-04-05T11:51:28.290Z,9.67
2019-04-05T11:54:04.363Z,8.43
2019-04-05T11:56:38.520Z,8.77
2019-04-05T11:59:16.249Z,7.43
2019-04-05T12:02:00.129Z,6.63
2019-04-05T12:04:36.401Z,10.80
2019-04-05T12:07:11.146Z,6.60
2019-04-05T12:09:48.006Z,8.20
2019-04-05T12:12:25.624Z,8.30
2019-04-05T12:14:58.974Z,8.83
2019-04-05T12:17:35.362Z,10.10
2019-04-05T12:20:11.226Z,7.43
2019-04-05T12:22:46.715Z,8.77
2019-04-05T12:25:23.263Z,11.03
2019-04-05T12:28:06.330Z,9.40
2019-04-05T12:30:39.702Z,9.80
2019-04-05T12:33:14.989Z,16.07
2019-04-05T12:35:56.647Z,10.70
2019-04-05T12:38:33.060Z,8.17
2019-04-05T12:41:11.005Z,8.50
2019-04-05T12:43:47.335Z,9.43
2019-04-05T12:46:23.040Z,8.73
2019-04-05T12:48:58.662Z,8.70
2019-04-05T12:51:34.188Z,8.40
2019-04-05T12:54:08.074Z,7.87
2019-04-05T12:56:45.248Z,8.37
2019-04-05T12:59:19.370Z,7.97
2019-04-05T13:01:52.896Z,9.40
2019-04-05T13:04:27.026Z,7.63
2019-04-05T13:07:01.051Z,9.03
2019-04-05T13:09:35.014Z,10.50
2019-04-05T13:12:10.412Z,7.27
2019-04-05T13:14:46.163Z,7.57
2019-04-05T13:17:22.891Z,8.47
2019-04-05T13:20:00.932Z,9.10
2019-04-05T13:22:34.934Z,8.80
2019-04-05T13:25:11.519Z,12.73
2019-04-05T13:27:48.978Z,10.37
2019-04-05T13:30:22.718Z,10.20
2019-04-05T13:32:58.387Z,8.80
2019-04-05T13:35:38.900Z,8.93
2019-04-05T13:38:17.432Z,6.50
2019-04-05T13:40:56.740Z,8.87
2019-04-05T13:43:31.969Z,9.07
2019-04-05T13:46:21.015Z,7.73
2019-04-05T13:48:48.250Z,8.47
2019-04-05T13:51:31.722Z,6.20
2019-04-05T13:54:02.817Z,6.73
2019-04-05T13:56:37.144Z,7.80
2019-04-05T13:59:12.216Z,10.20
2019-04-05T14:01:50.898Z,6.97
2019-04-05T14:04:29.874Z,11.97
2019-04-05T14:07:05.074Z,11.43
2019-04-05T14:09:43.492Z,13.50
2019-04-05T14:12:17.997Z,14.73
2019-04-05T14:14:51.913Z,15.13
2019-04-05T14:17:25.706Z,11.97
2019-04-05T14:20:01.378Z,11.17
2019-04-05T14:22:35.076Z,10.97
2019-04-05T14:25:11.538Z,13.53
2019-04-05T14:27:50.779Z,10.50
2019-04-05T14:30:26.556Z,8.47
2019-04-05T14:33:02.762Z,7.57
2019-04-05T14:35:38.649Z,14.83
2019-04-05T14:38:13.186Z,12.07
2019-04-05T14:40:48.079Z,9.73
2019-04-05T14:43:23.582Z,10.93
2019-04-05T14:45:57.840Z,7.60
2019-04-05T14:48:33.628Z,7.90
2019-04-05T14:51:08.414Z,6.90
2019-04-05T14:53:44.873Z,9.87
2019-04-05T14:56:22.761Z,8.77
2019-04-05T14:58:58.888Z,13.00
2019-04-05T15:01:36.036Z,14.47
2019-04-05T15:04:12.196Z,12.33
2019-04-05T15:06:50.615Z,10.20
2019-04-05T15:09:25.605Z,12.47
2019-04-05T15:12:03.767Z,10.93
2019-04-05T15:14:37.802Z,10.07
2019-04-05T15:17:12.928Z,8.50
2019-04-05T15:19:47.152Z,11.67
2019-04-05T15:22:21.034Z,11.97
2019-04-05T15:24:54.777Z,11.80
2019-04-05T15:27:28.645Z,10.93
2019-04-05T15:30:02.100Z,10.17
2019-04-05T15:32:38.416Z,12.40
2019-04-05T15:35:12.262Z,12.83
2019-04-05T15:37:48.133Z,13.07
2019-04-05T15:40:28.772Z,9.37
2019-04-05T15:43:07.585Z,9.37
2019-04-05T15:45:42.764Z,8.17
2019-04-05T15:48:20.497Z,8.67
2019-04-05T15:50:59.131Z,12.03
2019-04-05T15:53:35.221Z,14.97
2019-04-05T15:56:10.948Z,10.40
2019-04-05T15:58:44.946Z,7.40
2019-04-05T16:01:22.667Z,7.70
2019-04-05T16:04:00.517Z,10.40
2019-04-05T16:06:34.780Z,6.53
2019-04-05T16:09:17.718Z,10.23
2019-04-05T16:11:56.360Z,10.63
2019-04-05T16:14:30.628Z,9.57
2019-04-05T16:17:08.210Z,10.67
2019-04-05T16:19:43.478Z,10.67
2019-04-05T16:22:17.382Z,11.50
2019-04-05T16:24:52.144Z,11.47
2019-04-05T16:27:26.402Z,12.80
2019-04-05T16:30:03.777Z,12.07
2019-04-05T16:32:40.884Z,12.67
2019-04-05T16:35:15.334Z,13.43
2019-04-05T16:37:54.322Z,12.67
2019-04-05T16:40:31.131Z,13.63
2019-04-05T16:43:03.471Z,11.33
2019-04-05T16:45:38.890Z,14.00
2019-04-05T16:48:18.984Z,13.87
2019-04-05T16:50:52.634Z,12.13
2019-04-05T16:53:26.519Z,12.73
2019-04-05T16:56:00.501Z,11.77
2019-04-05T16:58:36.464Z,13.10
2019-04-05T17:01:10.104Z,12.23
2019-04-05T17:03:44.616Z,13.87
2019-04-05T17:06:18.653Z,13.13
2019-04-05T17:08:57.122Z,15.33
2019-04-05T17:11:31.732Z,16.50
2019-04-05T17:14:07.688Z,16.53
2019-04-05T17:16:47.708Z,15.87
2019-04-05T17:19:20.943Z,15.73
2019-04-05T17:21:58.322Z,14.43
2019-04-05T17:24:35.646Z,19.60
2019-04-05T17:27:09.888Z,19.47
2019-04-05T17:29:44.291Z,19.63
2019-04-05T17:32:19.798Z,17.87
2019-04-05T17:34:56.569Z,19.43
2019-04-05T17:37:31.254Z,18.33
2019-04-05T17:40:07.520Z,17.33
2019-04-05T17:42:42.988Z,19.30
2019-04-05T17:45:17.976Z,20.43
2019-04-05T17:47:53.226Z,18.50
2019-04-05T17:50:36.638Z,18.80
2019-04-05T17:53:13.632Z,22.07
2019-04-05T17:55:50.592Z,22.90
2019-04-05T17:58:27.866Z,19.73
2019-04-05T18:01:05.476Z,19.60
2019-04-05T18:03:42.594Z,24.57
2019-04-05T18:06:17.528Z,20.03
2019-04-05T18:08:56.426Z,19.60
2019-04-05T18:11:32.100Z,22.03
2019-04-05T18:14:09.362Z,20.23
2019-04-05T18:16:44.877Z,19.13
2019-04-05T18:19:19.367Z,17.60
2019-04-05T18:21:55.926Z,19.43
2019-04-05T18:24:30.885Z,19.60
2019-04-05T18:27:09.504Z,21.03
2019-04-05T18:29:43.446Z,20.80
2019-04-05T18:32:18.374Z,21.63
2019-04-05T18:34:52.522Z,21.63
2019-04-05T18:37:26.414Z,18.73
2019-04-05T18:40:06.369Z,20.47
2019-04-05T18:42:40.678Z,18.87
2019-04-05T18:45:14.570Z,22.63
2019-04-05T18:47:49.126Z,23.50
2019-04-05T18:50:23.132Z,20.63
2019-04-05T18:52:58.476Z,17.90
2019-04-05T18:55:32.090Z,22.37
2019-04-05T18:58:06.469Z,19.10
2019-04-05T19:00:40.368Z,21.67
2019-04-05T19:03:13.849Z,21.60
2019-04-05T19:05:47.680Z,19.83
2019-04-05T19:08:23.185Z,21.80
2019-04-05T19:10:59.484Z,21.07
2019-04-05T19:13:33.088Z,21.20
2019-04-05T19:16:21.394Z,23.33
2019-04-05T19:18:54.983Z,21.83
2019-04-05T19:21:29.115Z,22.60
2019-04-05T19:24:04.373Z,20.13
2019-04-05T19:26:39.902Z,18.97
2019-04-05T19:29:14.040Z,18.70
2019-04-05T19:50:01.264Z,18.77
2019-04-05T19:52:37.975Z,17.57
2019-04-05T19:55:14.630Z,18.43
2019-04-05T19:57:48.668Z,19.03
2019-04-05T20:00:23.608Z,19.60
2019-04-05T20:02:57.396Z,22.73
2019-04-05T20:05:32.823Z,26.97
2019-04-05T20:08:06.495Z,24.63
2019-04-05T20:10:40.316Z,23.03
2019-04-05T20:13:14.290Z,24.33
2019-04-05T20:15:49.643Z,24.77
2019-04-05T20:18:24.817Z,21.87
2019-04-05T20:20:58.128Z,21.80
2019-04-05T20:23:33.736Z,24.50
2019-04-05T20:26:07.278Z,23.07
2019-04-05T20:28:42.296Z,27.93
2019-04-05T20:31:15.934Z,24.50
2019-04-05T20:33:49.879Z,27.67
2019-04-05T20:36:25.277Z,24.53
2019-04-05T20:39:00.100Z,24.50
2019-04-05T20:41:33.574Z,25.60
2019-04-05T20:44:09.360Z,27.13
2019-04-05T20:46:44.246Z,26.07
2019-04-05T20:49:21.016Z,27.37
2019-04-05T20:51:55.980Z,28.37
2019-04-05T20:54:31.009Z,25.73
2019-04-05T20:57:06.514Z,23.17
2019-04-05T20:59:42.897Z,24.33
2019-04-05T21:02:18.760Z,24.10
2019-04-05T21:04:55.186Z,29.40
2019-04-05T21:07:30.634Z,25.53
2019-04-05T21:10:04.608Z,27.37
2019-04-05T21:12:40.179Z,25.13
2019-04-05T21:15:13.802Z,23.27
2019-04-05T21:17:48.693Z,24.57
2019-04-05T21:20:23.561Z,23.10
2019-04-05T21:22:57.308Z,23.97
2019-04-05T21:25:32.847Z,24.80
2019-04-05T21:28:10.094Z,27.90
2019-04-05T21:30:45.666Z,23.83
2019-04-05T21:33:21.939Z,22.67
2019-04-05T21:35:56.526Z,22.93
2019-04-05T21:38:30.903Z,24.20
2019-04-05T21:41:05.704Z,21.57
2019-04-05T21:43:40.730Z,25.00
2019-04-05T21:46:14.556Z,26.87
2019-04-05T21:48:46.360Z,23.43
2019-04-05T21:51:19.748Z,26.03
2019-04-05T21:53:53.320Z,23.40
2019-04-05T21:56:28.682Z,21.77
2019-04-05T21:59:02.480Z,24.70
2019-04-05T22:01:37.250Z,24.07
2019-04-05T22:04:10.862Z,23.43
2019-04-05T22:06:45.902Z,25.70
2019-04-05T22:09:23.212Z,22.07
2019-04-05T22:11:57.030Z,22.37
2019-04-05T22:14:30.654Z,19.27
2019-04-05T22:17:05.226Z,22.60
2019-04-05T22:19:38.501Z,27.83
2019-04-05T22:22:11.977Z,20.73
2019-04-05T22:24:58.557Z,17.20
2019-04-05T22:27:24.257Z,21.93
2019-04-05T22:29:58.945Z,14.73
2019-04-05T22:32:36.924Z,13.50
2019-04-05T22:35:10.308Z,13.70
2019-04-05T22:37:43.928Z,13.20
2019-04-05T22:40:17.289Z,14.57
2019-04-05T22:42:53.400Z,14.63
2019-04-05T22:45:28.072Z,15.93
2019-04-05T22:48:02.378Z,17.43
2019-04-05T22:50:35.688Z,19.27
2019-04-05T22:53:09.660Z,21.97
2019-04-05T22:55:46.276Z,18.13
2019-04-05T22:58:21.279Z,17.63
2019-04-05T23:00:57.403Z,18.23
2019-04-05T23:03:30.150Z,21.27
2019-04-05T23:06:05.297Z,20.17
2019-04-05T23:08:42.912Z,19.40
2019-04-05T23:11:18.354Z,19.13
2019-04-05T23:13:53.748Z,16.83
2019-04-05T23:16:29.799Z,16.97
2019-04-05T23:19:04.098Z,18.23
2019-04-05T23:21:40.804Z,18.53
2019-04-05T23:24:14.240Z,19.70
2019-04-05T23:26:47.492Z,19.43
2019-04-05T23:29:22.353Z,19.07
2019-04-05T23:31:55.405Z,18.03
2019-04-05T23:34:30.064Z,18.17
2019-04-05T23:37:04.962Z,17.07
2019-04-05T23:39:39.942Z,16.83
2019-04-05T23:42:14.141Z,16.50
2019-04-05T23:44:49.728Z,16.03
2019-04-05T23:47:24.459Z,13.97
2019-04-05T23:49:58.388Z,12.87
2019-04-05T23:52:34.190Z,12.93
2019-04-05T23:55:07.980Z,13.20
2019-04-05T23:57:42.715Z,13.67
